Time;durP1;ratioP1;P1;durP2;ratioP2;P2;SDS_P1;SDS_P2;PMS_P1;PMS_P2;Temp;Humidity;BMP_temperature;BMP_pressure;BME280_temperature;BME280_humidity;BME280_pressure;Samples;Min_cycle;Max_cycle;Signal;HPM_P1;HPM_P2
2022/03/20 00:00:53;;;;;;;20.30;12.27;;;6.00;1.00;;;;;;5000930;28;20276;-93
2022/03/20 00:03:21;;;;;;;18.30;12.63;;;6.00;1.00;;;;;;5001044;28;20259;-93
2022/03/20 00:05:48;;;;;;;16.83;12.20;;;6.00;1.00;;;;;;5001125;28;20655;-93
2022/03/20 00:08:14;;;;;;;16.23;11.63;;;5.90;1.00;;;;;;5000012;28;20697;-93
2022/03/20 00:10:46;;;;;;;17.73;12.60;;;6.50;1.00;;;;;;4998879;28;20197;-93
2022/03/20 00:13:13;;;;;;;18.83;12.73;;;6.00;1.00;;;;;;5000354;28;20691;-93
2022/03/20 00:15:40;;;;;;;16.17;12.53;;;5.90;1.00;;;;;;4999660;28;20212;-93
2022/03/20 00:18:07;;;;;;;17.80;11.73;;;5.90;1.00;;;;;;5000440;28;20177;-93
2022/03/20 00:20:35;;;;;;;19.40;13.07;;;5.90;1.00;;;;;;5001793;28;20200;-94
2022/03/20 00:23:04;;;;;;;17.57;12.47;;;5.90;1.00;;;;;;5005174;28;20553;-94
2022/03/20 00:25:30;;;;;;;19.57;13.63;;;5.90;1.00;;;;;;5005048;28;20259;-93
2022/03/20 00:27:56;;;;;;;16.80;13.10;;;5.90;1.00;;;;;;5003758;28;20187;-93
2022/03/20 00:30:22;;;;;;;17.67;13.00;;;6.00;1.00;;;;;;5023095;28;20201;-93
2022/03/20 00:32:47;;;;;;;18.67;12.63;;;5.90;1.00;;;;;;5005647;28;20181;-93
2022/03/20 00:35:13;;;;;;;18.17;12.90;;;5.80;1.00;;;;;;5003519;28;20180;-93
2022/03/20 00:37:38;;;;;;;19.73;12.90;;;5.80;1.00;;;;;;5004536;28;20372;-92
2022/03/20 00:40:05;;;;;;;18.50;12.80;;;5.80;1.00;;;;;;5006075;28;20566;-93
2022/03/20 00:42:30;;;;;;;16.67;13.07;;;5.80;1.00;;;;;;5006863;28;20173;-93
2022/03/20 00:44:56;;;;;;;18.90;13.03;;;5.80;1.00;;;;;;5023244;28;20195;-93
2022/03/20 00:47:21;;;;;;;20.97;12.67;;;5.70;1.00;;;;;;5004341;28;20188;-93
2022/03/20 00:49:47;;;;;;;20.77;13.70;;;5.70;1.00;;;;;;5004632;28;20255;-93
2022/03/20 00:52:13;;;;;;;17.03;12.60;;;5.70;1.00;;;;;;5003837;28;20553;-94
2022/03/20 00:54:38;;;;;;;18.60;13.53;;;5.70;1.00;;;;;;5021298;28;20245;-93
2022/03/20 00:57:04;;;;;;;17.87;12.70;;;5.60;1.00;;;;;;5002456;28;20682;-93
2022/03/20 00:59:30;;;;;;;20.40;14.20;;;5.60;1.00;;;;;;5000972;28;20686;-93
2022/03/20 01:01:55;;;;;;;17.83;12.47;;;5.60;1.00;;;;;;5001304;28;20195;-93
2022/03/20 01:04:21;;;;;;;17.20;12.63;;;5.60;1.00;;;;;;5001356;28;20643;-94
2022/03/20 01:06:47;;;;;;;19.03;14.37;;;5.60;57.50;;;;;;5001064;28;20185;-93
2022/03/20 01:09:12;;;;;;;19.67;14.27;;;5.50;4.60;;;;;;5000424;28;20172;-93
2022/03/20 01:11:38;;;;;;;19.47;13.67;;;5.50;33.10;;;;;;5020053;28;20581;-93
2022/03/20 01:14:04;;;;;;;18.57;12.70;;;5.50;78.00;;;;;;4983133;28;20577;-93
2022/03/20 01:16:30;;;;;;;20.43;12.57;;;5.40;99.90;;;;;;5000711;28;20271;-92
2022/03/20 01:18:55;;;;;;;20.90;13.10;;;5.40;99.90;;;;;;4981283;28;20174;-93
2022/03/20 01:21:21;;;;;;;22.53;14.87;;;5.40;81.00;;;;;;4980728;28;20202;-93
2022/03/20 01:23:47;;;;;;;24.53;14.40;;;5.40;99.90;;;;;;4980818;28;20174;-93
2022/03/20 01:26:12;;;;;;;20.90;13.17;;;5.30;99.90;;;;;;4981873;28;20177;-93
2022/03/20 01:28:38;;;;;;;16.63;12.93;;;5.30;99.90;;;;;;4999115;28;20174;-93
2022/03/20 01:31:04;;;;;;;19.00;12.77;;;5.40;91.60;;;;;;4989393;28;20205;-93
2022/03/20 01:33:29;;;;;;;26.83;13.50;;;5.30;99.90;;;;;;5018990;28;20165;-94
2022/03/20 01:35:55;;;;;;;23.43;13.83;;;5.30;99.90;;;;;;5001702;28;20210;-93
2022/03/20 01:38:20;;;;;;;17.80;12.87;;;5.30;70.90;;;;;;5015825;28;20170;-93
2022/03/20 01:40:47;;;;;;;19.03;13.20;;;5.20;39.70;;;;;;4988375;28;20220;-93
2022/03/20 01:43:13;;;;;;;19.47;13.10;;;5.30;91.90;;;;;;4998640;28;20177;-93
2022/03/20 01:45:39;;;;;;;17.77;12.63;;;5.20;1.00;;;;;;5009767;28;20620;-94
2022/03/20 01:48:05;;;;;;;18.83;13.23;;;5.30;5.30;;;;;;4996458;28;20178;-93
2022/03/20 01:50:32;;;;;;;21.80;13.23;;;5.30;1.00;;;;;;5012859;28;20201;-93
2022/03/20 01:52:58;;;;;;;21.20;13.27;;;5.20;1.00;;;;;;5013055;28;20178;-93
2022/03/20 01:55:24;;;;;;;17.70;12.90;;;5.20;1.00;;;;;;4995697;28;20205;-93
2022/03/20 01:57:51;;;;;;;19.67;13.07;;;5.90;1.00;;;;;;4987581;28;20181;-93
2022/03/20 02:00:18;;;;;;;18.80;13.30;;;5.10;1.00;;;;;;4984352;28;20194;-93
2022/03/20 02:02:44;;;;;;;18.33;13.13;;;5.80;1.00;;;;;;4997979;28;20169;-93
2022/03/20 02:05:11;;;;;;;20.23;13.07;;;5.20;1.00;;;;;;5017732;28;20188;-93
2022/03/20 02:07:38;;;;;;;20.13;13.67;;;5.10;1.00;;;;;;5013663;28;20182;-93
2022/03/20 02:10:06;;;;;;;22.57;13.50;;;5.00;1.00;;;;;;4979816;28;20206;-93
2022/03/20 02:12:32;;;;;;;19.37;13.23;;;5.10;1.00;;;;;;4989193;28;20205;-93
2022/03/20 02:15:01;;;;;;;19.57;12.67;;;5.20;1.00;;;;;;5016097;28;20173;-93
2022/03/20 02:17:30;;;;;;;19.10;13.00;;;5.10;1.00;;;;;;5000541;28;20193;-93
2022/03/20 02:19:57;;;;;;;19.93;12.97;;;5.10;1.00;;;;;;5011061;28;20185;-93
2022/03/20 02:22:24;;;;;;;26.87;12.73;;;5.10;1.00;;;;;;4980255;28;20170;-93
2022/03/20 02:24:51;;;;;;;18.57;12.00;;;5.10;1.00;;;;;;5006118;28;20204;-93
2022/03/20 02:27:24;;;;;;;18.40;12.67;;;5.20;1.00;;;;;;4996275;28;20178;-93
2022/03/20 02:29:58;;;;;;;18.63;13.03;;;5.10;1.00;;;;;;4992757;28;20209;-93
2022/03/20 02:32:29;;;;;;;20.70;13.10;;;6.50;1.00;;;;;;4982072;28;20181;-93
2022/03/20 02:34:56;;;;;;;21.20;14.10;;;5.40;1.00;;;;;;4996930;28;20215;-93
2022/03/20 02:37:24;;;;;;;19.27;12.97;;;5.10;1.00;;;;;;4981361;28;20205;-92
2022/03/20 02:39:53;;;;;;;20.50;14.03;;;5.20;1.00;;;;;;4980299;28;20284;-93
2022/03/20 02:42:19;;;;;;;20.20;13.27;;;6.00;1.00;;;;;;4981631;28;20178;-93
2022/03/20 02:44:50;;;;;;;18.10;13.00;;;5.20;1.00;;;;;;4994924;28;20204;-93
2022/03/20 02:47:20;;;;;;;19.77;12.97;;;5.20;1.00;;;;;;4995029;28;20636;-94
2022/03/20 02:49:54;;;;;;;19.67;12.93;;;5.20;1.00;;;;;;4995700;28;20289;-93
2022/03/20 02:52:24;;;;;;;24.33;13.40;;;5.20;1.00;;;;;;4995833;28;20184;-93
2022/03/20 02:54:50;;;;;;;19.17;13.10;;;5.20;1.00;;;;;;4977839;28;20596;-93
2022/03/20 02:57:15;;;;;;;19.07;13.93;;;5.10;1.00;;;;;;4977778;28;20255;-93
2022/03/20 02:59:41;;;;;;;21.03;12.77;;;5.20;1.00;;;;;;4995445;28;20197;-93
2022/03/20 03:02:11;;;;;;;21.17;12.93;;;5.20;1.00;;;;;;4978479;28;20185;-93
2022/03/20 03:04:41;;;;;;;17.80;12.67;;;5.20;1.00;;;;;;4994407;28;20178;-93
2022/03/20 03:07:07;;;;;;;19.57;12.83;;;5.20;1.00;;;;;;4984213;28;20177;-93
2022/03/20 03:12:18;;;;;;;20.87;12.63;;;5.20;1.00;;;;;;5013761;28;20173;-93
2022/03/20 03:17:28;;;;;;;17.63;12.60;;;5.20;1.00;;;;;;5008533;28;20197;-94
2022/03/20 03:19:57;;;;;;;17.63;12.53;;;5.10;1.00;;;;;;4977544;28;20197;-93
2022/03/20 03:22:26;;;;;;;20.90;12.70;;;5.20;1.00;;;;;;4993786;28;20189;-93
2022/03/20 03:24:54;;;;;;;19.00;13.17;;;5.20;1.00;;;;;;4978138;28;20284;-93
2022/03/20 03:27:20;;;;;;;19.87;12.30;;;5.20;1.00;;;;;;4977862;28;20258;-93
2022/03/20 03:29:45;;;;;;;19.20;13.23;;;5.10;1.00;;;;;;4995101;28;20209;-93
2022/03/20 03:32:11;;;;;;;20.03;13.33;;;5.10;1.00;;;;;;4977725;28;20200;-93
2022/03/20 03:37:22;;;;;;;21.43;12.70;;;5.20;1.00;;;;;;4995263;28;20240;-93
2022/03/20 03:39:48;;;;;;;19.43;12.87;;;5.10;1.00;;;;;;4993132;28;20544;-93
2022/03/20 03:42:14;;;;;;;18.90;12.83;;;5.20;1.00;;;;;;4993211;28;20248;-92
2022/03/20 03:44:39;;;;;;;20.47;12.80;;;5.10;1.00;;;;;;4976791;28;20224;-93
2022/03/20 03:47:06;;;;;;;19.53;13.43;;;5.20;1.00;;;;;;4977380;28;20201;-93
2022/03/20 03:49:33;;;;;;;19.93;13.27;;;5.10;1.00;;;;;;4977200;28;20681;-93
2022/03/20 03:52:00;;;;;;;18.13;12.97;;;5.10;1.00;;;;;;4993293;28;20227;-93
2022/03/20 03:54:26;;;;;;;19.83;13.20;;;5.20;1.00;;;;;;4993126;28;20174;-93
2022/03/20 03:56:51;;;;;;;22.13;12.70;;;5.20;1.00;;;;;;4996678;28;20762;-93
2022/03/20 03:59:17;;;;;;;16.20;11.90;;;5.10;1.00;;;;;;4998558;28;20174;-93
2022/03/20 04:01:43;;;;;;;19.80;12.57;;;5.20;1.00;;;;;;4998279;28;20551;-93
2022/03/20 04:04:09;;;;;;;20.30;13.07;;;5.20;1.00;;;;;;4996854;28;20169;-93
2022/03/20 04:06:34;;;;;;;24.73;13.03;;;5.20;1.00;;;;;;4996909;28;20177;-93
2022/03/20 04:09:00;;;;;;;20.87;13.43;;;5.20;1.00;;;;;;4997885;28;20551;-93
2022/03/20 04:11:26;;;;;;;20.50;13.30;;;5.10;1.00;;;;;;4980956;28;20233;-93
2022/03/20 04:13:52;;;;;;;20.83;12.73;;;5.10;1.00;;;;;;4997809;28;20174;-93
2022/03/20 04:16:18;;;;;;;20.23;13.10;;;5.10;1.00;;;;;;4998084;28;20668;-93
2022/03/20 04:18:44;;;;;;;21.53;13.33;;;5.10;1.00;;;;;;4996670;28;20177;-93
2022/03/20 04:21:10;;;;;;;19.40;12.97;;;5.10;1.00;;;;;;4980335;28;20197;-93
2022/03/20 04:23:51;;;;;;;22.13;12.97;;;5.20;1.00;;;;;;4980156;28;20201;-93
2022/03/20 04:26:18;;;;;;;18.20;12.37;;;5.10;1.00;;;;;;4996785;28;20583;-93
2022/03/20 04:28:47;;;;;;;18.67;12.83;;;5.10;1.00;;;;;;4980373;28;20639;-93
2022/03/20 04:31:16;;;;;;;17.70;12.83;;;5.10;1.00;;;;;;4980465;28;20201;-93
2022/03/20 04:33:43;;;;;;;18.00;12.57;;;5.10;1.00;;;;;;4997102;28;20178;-93
2022/03/20 04:36:09;;;;;;;18.17;13.07;;;5.10;1.00;;;;;;4997787;28;20252;-93
2022/03/20 04:38:37;;;;;;;17.23;12.10;;;5.10;1.00;;;;;;4996842;28;20174;-93
2022/03/20 04:41:04;;;;;;;20.17;13.97;;;5.10;1.00;;;;;;4998922;28;20251;-93
2022/03/20 04:43:30;;;;;;;19.23;13.33;;;5.10;1.00;;;;;;4981984;28;20189;-93
2022/03/20 04:45:56;;;;;;;19.77;12.70;;;5.00;1.00;;;;;;4980775;28;20178;-93
2022/03/20 04:59:19;;;;;;;20.50;13.33;;;4.90;1.00;;;;;;4997815;28;20188;-93
2022/03/20 05:01:45;;;;;;;18.67;12.73;;;4.80;1.00;;;;;;4980262;28;20174;-93
2022/03/20 05:04:14;;;;;;;22.17;13.33;;;4.80;1.00;;;;;;5014103;23;20232;-84
2022/03/20 05:06:40;;;;;;;19.73;13.37;;;4.80;1.00;;;;;;5059853;28;20168;-83
2022/03/20 05:14:34;;;;;;;21.27;12.50;;;4.60;1.00;;;;;;5041767;28;20199;-83
2022/03/20 05:17:02;;;;;;;18.43;12.23;;;4.60;1.00;;;;;;5042435;28;20193;-82
2022/03/20 05:19:28;;;;;;;18.10;11.87;;;4.50;1.00;;;;;;5041178;28;20168;-82
2022/03/20 05:21:53;;;;;;;18.80;13.27;;;4.50;1.00;;;;;;5057216;28;20184;-82
2022/03/20 05:24:19;;;;;;;17.97;12.67;;;4.50;1.00;;;;;;5041362;28;20184;-82
2022/03/20 05:26:45;;;;;;;17.33;12.37;;;4.40;1.00;;;;;;5040307;28;20172;-81
2022/03/20 05:29:10;;;;;;;18.93;12.23;;;4.40;1.00;;;;;;5039418;28;20180;-82
2022/03/20 05:31:36;;;;;;;18.37;13.10;;;4.30;1.00;;;;;;5040496;28;20183;-83
2022/03/20 05:34:01;;;;;;;19.63;11.97;;;4.30;1.00;;;;;;5041153;28;20203;-83
2022/03/20 05:36:29;;;;;;;20.37;12.53;;;4.30;1.00;;;;;;5040654;28;20657;-82
2022/03/20 05:38:58;;;;;;;17.33;11.63;;;4.30;1.00;;;;;;5040368;28;20642;-83
2022/03/20 05:44:11;;;;;;;17.73;12.03;;;4.30;1.00;;;;;;5042019;28;20195;-83
2022/03/20 05:46:37;;;;;;;22.10;13.17;;;4.20;1.00;;;;;;5040218;28;20199;-83
2022/03/20 05:49:03;;;;;;;19.80;12.67;;;4.20;1.00;;;;;;5039842;28;20176;-83
2022/03/20 05:51:30;;;;;;;17.60;12.90;;;4.20;1.00;;;;;;5040037;28;20179;-82
2022/03/20 05:53:57;;;;;;;18.80;12.33;;;4.10;1.00;;;;;;5034635;28;20255;-82
2022/03/20 05:59:06;;;;;;;18.43;12.63;;;4.10;1.00;;;;;;5040419;28;20179;-82
2022/03/20 06:01:32;;;;;;;24.63;13.03;;;4.10;1.00;;;;;;5055218;28;20173;-82
2022/03/20 06:03:57;;;;;;;19.50;12.13;;;4.10;1.00;;;;;;5039720;28;20249;-82
2022/03/20 06:06:23;;;;;;;20.17;11.87;;;4.10;1.00;;;;;;5051604;28;20215;-82
2022/03/20 06:08:49;;;;;;;19.10;12.63;;;4.10;1.00;;;;;;5037106;28;20176;-82
2022/03/20 06:11:15;;;;;;;18.90;13.00;;;4.20;1.00;;;;;;5039282;28;20183;-82
2022/03/20 06:13:41;;;;;;;17.77;11.80;;;4.20;1.00;;;;;;5038421;28;20192;-82
2022/03/20 06:16:09;;;;;;;17.77;12.17;;;4.20;1.00;;;;;;5038078;28;20196;-84
2022/03/20 06:18:34;;;;;;;21.13;12.47;;;4.20;1.00;;;;;;5039697;28;20548;-83
2022/03/20 06:21:00;;;;;;;22.40;12.73;;;4.30;1.00;;;;;;5039014;28;20176;-84
2022/03/20 06:23:27;;;;;;;18.73;12.23;;;4.30;1.00;;;;;;5038966;28;20192;-84
2022/03/20 06:25:52;;;;;;;16.13;11.63;;;4.30;1.00;;;;;;5038613;28;20591;-83
2022/03/20 06:28:19;;;;;;;17.70;12.07;;;4.20;1.00;;;;;;5054238;28;20176;-84
2022/03/20 06:30:45;;;;;;;20.13;13.03;;;4.20;1.00;;;;;;5053714;28;20191;-82
2022/03/20 06:33:11;;;;;;;19.13;12.47;;;4.20;1.00;;;;;;5037187;28;20196;-84
2022/03/20 06:35:37;;;;;;;21.33;11.83;;;4.30;1.00;;;;;;5039102;28;20222;-83
2022/03/20 06:38:03;;;;;;;17.60;12.00;;;4.30;1.00;;;;;;5036875;28;20713;-84
2022/03/20 06:40:28;;;;;;;21.63;13.93;;;4.30;1.00;;;;;;5038145;28;20172;-84
2022/03/20 06:42:55;;;;;;;20.13;12.90;;;4.30;1.00;;;;;;5037228;28;20894;-84
2022/03/20 06:45:21;;;;;;;18.90;12.93;;;4.30;1.00;;;;;;5038644;28;20223;-84
2022/03/20 06:47:48;;;;;;;17.77;11.93;;;4.30;1.00;;;;;;5038206;28;20596;-84
2022/03/20 06:50:14;;;;;;;19.73;12.90;;;4.30;1.00;;;;;;5037225;28;20223;-84
2022/03/20 06:52:40;;;;;;;22.03;12.20;;;4.40;1.00;;;;;;5038148;28;20175;-84
2022/03/20 06:55:08;;;;;;;19.47;12.90;;;4.40;1.00;;;;;;5038089;28;20179;-84
2022/03/20 06:57:35;;;;;;;19.17;11.73;;;4.40;1.00;;;;;;5038239;28;20196;-84
2022/03/20 07:00:03;;;;;;;16.00;11.37;;;4.50;1.00;;;;;;5037334;28;20172;-83
2022/03/20 07:02:29;;;;;;;21.93;13.37;;;4.50;1.00;;;;;;5053027;28;20177;-84
2022/03/20 07:04:55;;;;;;;17.07;11.77;;;4.50;99.90;;;;;;5035771;28;20206;-84
2022/03/20 07:07:22;;;;;;;18.20;12.57;;;4.50;1.00;;;;;;5037921;28;20203;-84
2022/03/20 07:09:48;;;;;;;20.33;11.70;;;4.60;1.00;;;;;;5052942;28;20186;-82
2022/03/20 07:12:14;;;;;;;18.53;12.20;;;4.60;1.00;;;;;;5053170;28;20270;-85
2022/03/20 07:14:42;;;;;;;17.90;12.67;;;4.70;99.90;;;;;;5037797;28;20644;-84
2022/03/20 07:17:11;;;;;;;18.97;11.60;;;4.70;99.90;;;;;;5053601;28;20263;-83
2022/03/20 07:19:37;;;;;;;24.63;11.67;;;4.80;99.90;;;;;;5038417;28;20179;-83
2022/03/20 07:22:05;;;;;;;19.03;12.33;;;4.80;99.90;;;;;;5054331;28;20183;-84
2022/03/20 07:24:32;;;;;;;18.63;11.93;;;4.90;99.90;;;;;;5039024;28;20188;-85
2022/03/20 07:29:42;;;;;;;18.13;12.17;;;5.00;99.90;;;;;;5044458;28;20218;-81
2022/03/20 07:32:09;;;;;;;18.93;12.80;;;5.10;99.90;;;;;;5039095;28;20176;-82
2022/03/20 07:34:36;;;;;;;20.77;12.23;;;5.20;99.90;;;;;;5037888;28;20219;-78
2022/03/20 07:37:03;;;;;;;20.07;12.03;;;5.20;99.90;;;;;;5043979;28;20235;-79
2022/03/20 07:39:30;;;;;;;17.60;11.83;;;5.20;99.90;;;;;;5051308;28;20168;-80
2022/03/20 07:41:57;;;;;;;17.03;12.23;;;5.20;99.90;;;;;;5040660;28;20545;-80
2022/03/20 07:44:23;;;;;;;16.73;11.87;;;5.30;99.90;;;;;;5038072;28;20188;-80
2022/03/20 07:46:49;;;;;;;22.60;14.13;;;5.40;99.90;;;;;;5037143;28;20195;-79
2022/03/20 07:49:15;;;;;;;20.67;12.93;;;5.50;99.90;;;;;;5037033;28;20176;-80
2022/03/20 07:51:42;;;;;;;17.77;12.83;;;5.60;99.90;;;;;;5037954;28;20355;-79
2022/03/20 07:54:07;;;;;;;18.43;12.60;;;5.70;99.90;;;;;;5037985;28;20184;-78
2022/03/20 07:56:35;;;;;;;20.17;13.03;;;5.80;99.90;;;;;;5038066;28;20192;-79
2022/03/20 07:59:05;;;;;;;17.23;12.50;;;5.90;99.90;;;;;;5053373;28;20168;-82
2022/03/20 08:01:32;;;;;;;20.27;12.63;;;6.00;99.90;;;;;;5053592;28;20168;-80
2022/03/20 08:03:58;;;;;;;18.47;12.37;;;6.10;99.90;;;;;;5038597;28;20271;-81
2022/03/20 08:06:23;;;;;;;19.43;12.70;;;6.10;99.90;;;;;;5057142;28;20234;-81
2022/03/20 08:08:49;;;;;;;23.30;13.43;;;6.20;99.90;;;;;;5058031;28;20183;-79
2022/03/20 08:11:15;;;;;;;18.53;13.00;;;6.30;99.90;;;;;;5057458;28;20254;-81
2022/03/20 08:13:43;;;;;;;21.57;12.87;;;6.40;99.90;;;;;;5057224;28;20273;-81
2022/03/20 08:16:12;;;;;;;21.50;13.67;;;6.40;99.90;;;;;;5057767;28;20265;-81
2022/03/20 08:18:38;;;;;;;21.50;13.50;;;6.50;99.90;;;;;;5057708;28;20164;-80
2022/03/20 08:21:05;;;;;;;16.40;12.70;;;6.50;99.90;;;;;;5058884;28;20174;-80
2022/03/20 08:23:31;;;;;;;21.23;13.30;;;6.60;99.90;;;;;;5040384;28;20183;-80
2022/03/20 08:25:56;;;;;;;19.00;13.33;;;6.60;99.90;;;;;;5057497;28;20661;-79
2022/03/20 08:28:22;;;;;;;20.07;13.37;;;6.60;99.90;;;;;;5039649;28;20175;-79
2022/03/20 08:30:47;;;;;;;22.00;13.57;;;6.60;99.90;;;;;;5039354;28;20172;-80
2022/03/20 08:33:12;;;;;;;24.13;13.57;;;6.70;99.90;;;;;;5057901;28;20207;-79
2022/03/20 08:35:38;;;;;;;20.50;13.10;;;6.70;99.90;;;;;;5057982;28;20185;-79
2022/03/20 08:38:04;;;;;;;19.50;13.50;;;6.70;99.90;;;;;;5057097;28;20182;-79
2022/03/20 08:40:30;;;;;;;18.97;13.83;;;6.80;99.90;;;;;;5045704;28;20176;-78
2022/03/20 08:42:56;;;;;;;19.90;12.67;;;6.90;99.90;;;;;;5038178;28;20582;-81
2022/03/20 08:45:24;;;;;;;20.23;13.57;;;7.00;99.90;;;;;;5039882;28;20214;-80
2022/03/20 08:47:50;;;;;;;18.83;13.13;;;7.00;99.90;;;;;;5023213;28;20176;-80
2022/03/20 08:50:18;;;;;;;17.27;13.50;;;7.10;99.90;;;;;;5024361;28;20183;-80
2022/03/20 08:52:46;;;;;;;19.97;14.73;;;7.20;99.90;;;;;;5090370;23;20746;-74
2022/03/20 08:55:13;;;;;;;19.83;13.87;;;7.20;99.90;;;;;;5095666;28;20170;-75
2022/03/20 08:57:40;;;;;;;19.47;14.03;;;7.20;99.90;;;;;;5095613;28;20210;-73
2022/03/20 09:00:12;;;;;;;19.43;14.33;;;7.30;99.90;;;;;;5076574;28;20177;-74
2022/03/20 09:02:38;;;;;;;18.93;13.93;;;7.30;99.90;;;;;;5079437;28;20194;-75
2022/03/20 09:05:05;;;;;;;19.83;13.87;;;7.30;99.90;;;;;;5075775;28;20179;-75
2022/03/20 09:07:31;;;;;;;24.77;14.90;;;7.40;99.90;;;;;;5075673;28;20193;-74
2022/03/20 09:09:57;;;;;;;23.57;14.40;;;7.50;99.90;;;;;;5075355;28;20597;-73
2022/03/20 09:12:23;;;;;;;17.77;13.00;;;7.50;99.90;;;;;;5073936;28;20281;-75
2022/03/20 09:14:48;;;;;;;22.47;13.93;;;7.60;99.90;;;;;;5075245;28;20175;-75
2022/03/20 09:19:58;;;;;;;21.23;13.97;;;7.80;99.90;;;;;;5075414;28;20635;-75
2022/03/20 09:22:27;;;;;;;18.93;13.87;;;7.80;99.90;;;;;;5075049;28;20282;-75
2022/03/20 09:24:53;;;;;;;21.23;14.30;;;7.80;99.90;;;;;;5057112;28;20179;-75
2022/03/20 09:27:19;;;;;;;21.30;14.47;;;7.80;99.90;;;;;;5075258;28;20182;-75
2022/03/20 09:29:44;;;;;;;18.83;13.37;;;7.80;99.90;;;;;;5075002;28;20183;-75
2022/03/20 09:32:11;;;;;;;20.83;13.90;;;7.80;99.90;;;;;;5074787;28;20195;-75
2022/03/20 09:34:37;;;;;;;23.30;14.20;;;7.80;99.90;;;;;;5075144;28;20167;-74
2022/03/20 09:37:03;;;;;;;19.00;13.80;;;7.70;99.90;;;;;;5074810;28;20198;-73
2022/03/20 09:39:29;;;;;;;20.17;14.90;;;7.70;99.90;;;;;;5074135;28;20749;-75
2022/03/20 09:41:55;;;;;;;23.37;15.37;;;7.70;99.90;;;;;;5074491;28;20202;-75
2022/03/20 09:44:25;;;;;;;22.93;15.07;;;7.80;99.90;;;;;;5074946;28;20174;-76
2022/03/20 09:46:51;;;;;;;21.60;15.00;;;7.90;99.90;;;;;;5074308;28;20660;-75
2022/03/20 09:49:19;;;;;;;20.40;14.97;;;7.90;99.90;;;;;;5056569;28;20175;-74
2022/03/20 09:51:45;;;;;;;23.47;15.60;;;8.00;99.90;;;;;;5056371;28;20213;-74
2022/03/20 09:54:13;;;;;;;23.47;14.53;;;8.00;99.90;;;;;;5074105;28;20177;-75
2022/03/20 09:56:41;;;;;;;23.63;15.87;;;8.00;99.90;;;;;;5074329;28;20189;-74
2022/03/20 09:59:07;;;;;;;23.23;14.50;;;8.10;99.90;;;;;;5069668;28;20175;-75
2022/03/20 10:01:34;;;;;;;20.90;14.90;;;8.10;99.90;;;;;;5074107;28;20198;-74
2022/03/20 10:04:07;;;;;;;21.93;15.00;;;8.20;99.90;;;;;;5073803;28;20173;-74
2022/03/20 10:06:38;;;;;;;25.67;15.43;;;8.30;99.90;;;;;;5074076;28;20170;-74
2022/03/20 10:09:06;;;;;;;19.63;14.17;;;8.30;99.90;;;;;;5072324;28;20232;-74
2022/03/20 10:11:33;;;;;;;21.87;15.37;;;8.30;99.90;;;;;;5055822;28;20574;-74
2022/03/20 10:14:21;;;;;;;21.67;14.97;;;8.40;99.90;;;;;;5055719;28;20228;-75
2022/03/20 10:17:16;;;;;;;22.90;15.27;;;8.50;99.90;;;;;;5056022;28;20194;-75
2022/03/20 10:19:42;;;;;;;22.13;14.73;;;8.50;99.90;;;;;;5074141;28;20254;-75
2022/03/20 10:22:14;;;;;;;23.63;16.43;;;8.50;99.90;;;;;;5073532;28;20692;-76
2022/03/20 10:24:48;;;;;;;20.23;14.60;;;8.60;99.90;;;;;;5073859;28;20154;-75
2022/03/20 10:27:15;;;;;;;20.50;14.97;;;8.60;99.90;;;;;;5068938;28;20181;-74
2022/03/20 10:30:08;;;;;;;26.07;17.43;;;8.70;99.90;;;;;;5055604;28;20260;-75
2022/03/20 10:32:33;;;;;;;24.10;16.93;;;8.80;99.90;;;;;;5070283;28;20629;-74
2022/03/20 10:35:01;;;;;;;22.73;15.93;;;8.80;99.90;;;;;;5073602;28;20202;-75
2022/03/20 10:37:50;;;;;;;23.27;16.67;;;8.80;99.90;;;;;;5055293;28;20225;-75
2022/03/20 10:40:24;;;;;;;20.43;15.53;;;8.90;99.90;;;;;;5073544;28;20250;-76
2022/03/20 10:43:07;;;;;;;23.97;16.90;;;9.00;99.90;;;;;;5073779;28;20216;-75
2022/03/20 10:45:52;;;;;;;24.77;16.37;;;9.10;99.90;;;;;;5073390;28;20162;-74
2022/03/20 10:48:27;;;;;;;21.63;17.13;;;9.20;99.90;;;;;;5055439;28;20625;-74
2022/03/20 10:50:53;;;;;;;23.57;16.83;;;9.30;99.90;;;;;;5073248;28;20198;-75
2022/03/20 10:53:19;;;;;;;25.73;18.60;;;9.40;99.90;;;;;;5073624;28;20234;-75
2022/03/20 10:55:50;;;;;;;26.30;18.63;;;9.60;99.90;;;;;;5055262;28;20186;-74
2022/03/20 10:58:20;;;;;;;26.50;18.03;;;9.70;99.90;;;;;;5054344;28;20197;-75
2022/03/20 11:00:46;;;;;;;23.40;17.97;;;9.80;99.90;;;;;;5035862;28;20182;-75
2022/03/20 11:03:15;;;;;;;31.27;19.90;;;10.00;99.90;;;;;;5053472;28;20171;-74
2022/03/20 11:05:41;;;;;;;25.63;19.07;;;10.10;99.90;;;;;;5034817;28;20178;-75
2022/03/20 11:08:06;;;;;;;26.07;19.13;;;10.20;99.90;;;;;;5035558;28;20175;-75
2022/03/20 11:10:33;;;;;;;25.87;18.63;;;10.30;99.90;;;;;;5036584;28;20658;-75
2022/03/20 11:13:00;;;;;;;29.70;19.20;;;10.40;99.90;;;;;;5053086;28;20205;-75
2022/03/20 11:15:28;;;;;;;27.73;19.23;;;10.60;99.90;;;;;;5051801;28;20656;-75
2022/03/20 11:17:55;;;;;;;23.80;18.87;;;10.80;99.90;;;;;;5051736;28;20210;-75
2022/03/20 11:20:23;;;;;;;29.70;19.97;;;11.00;99.90;;;;;;5052975;28;20168;-75
2022/03/20 11:22:50;;;;;;;28.87;20.57;;;11.20;99.90;;;;;;5053215;28;20657;-75
2022/03/20 11:25:21;;;;;;;27.50;20.83;;;11.40;99.90;;;;;;5051738;28;20180;-76
2022/03/20 11:27:55;;;;;;;25.37;19.20;;;11.60;99.90;;;;;;5053109;28;20159;-75
2022/03/20 11:30:27;;;;;;;26.13;19.03;;;11.90;99.90;;;;;;5054949;28;20175;-75
2022/03/20 11:32:53;;;;;;;26.73;19.47;;;12.00;99.90;;;;;;5054782;28;20221;-75
2022/03/20 11:35:28;;;;;;;24.53;18.73;;;12.10;99.90;;;;;;5072947;28;20186;-74
2022/03/20 11:37:55;;;;;;;29.23;19.80;;;12.20;99.90;;;;;;5072791;28;20182;-75
2022/03/20 11:40:22;;;;;;;26.63;19.73;;;12.10;99.90;;;;;;5073205;28;20163;-75
2022/03/20 11:42:50;;;;;;;28.27;20.03;;;12.20;99.90;;;;;;5073059;28;20183;-75
2022/03/20 11:45:21;;;;;;;26.07;19.73;;;12.20;99.90;;;;;;5072983;28;20702;-75
2022/03/20 11:47:49;;;;;;;25.77;20.47;;;12.30;99.90;;;;;;5054805;28;20596;-75
2022/03/20 11:50:16;;;;;;;26.70;20.73;;;12.30;99.90;;;;;;5072742;28;20229;-75
2022/03/20 11:52:45;;;;;;;25.97;19.20;;;12.30;99.90;;;;;;5072902;28;20596;-75
2022/03/20 11:55:32;;;;;;;24.60;19.10;;;12.20;99.90;;;;;;5054728;28;20179;-76
2022/03/20 11:57:59;;;;;;;25.93;19.87;;;12.30;99.90;;;;;;5034704;28;20202;-75
2022/03/20 12:00:33;;;;;;;27.40;20.73;;;12.20;99.90;;;;;;5052712;28;20203;-75
2022/03/20 12:03:14;;;;;;;27.90;20.73;;;12.00;99.90;;;;;;5052603;28;20184;-75
2022/03/20 12:06:20;;;;;;;27.73;20.43;;;11.80;99.90;;;;;;5036373;28;20173;-75
2022/03/20 12:09:03;;;;;;;26.43;18.20;;;11.70;99.90;;;;;;5072692;28;20167;-75
2022/03/20 12:11:47;;;;;;;25.23;18.93;;;11.70;99.90;;;;;;5072760;28;20191;-75
2022/03/20 12:14:33;;;;;;;24.57;19.37;;;11.60;99.90;;;;;;5072746;28;20171;-75
2022/03/20 12:17:00;;;;;;;26.63;19.70;;;11.60;99.90;;;;;;5056397;28;20250;-75
2022/03/20 12:19:44;;;;;;;29.03;20.30;;;11.50;99.90;;;;;;5058126;28;20179;-76
2022/03/20 12:22:15;;;;;;;28.37;20.53;;;11.50;99.90;;;;;;5076291;28;20179;-76
2022/03/20 12:24:49;;;;;;;25.67;19.50;;;11.40;99.90;;;;;;5058674;28;20537;-76
2022/03/20 12:27:24;;;;;;;31.07;19.63;;;11.40;99.90;;;;;;5058641;28;20611;-78
2022/03/20 12:29:57;;;;;;;29.57;19.27;;;11.40;99.90;;;;;;5076104;28;20236;-76
2022/03/20 12:32:24;;;;;;;25.97;19.77;;;11.30;99.90;;;;;;5075769;28;20194;-76
2022/03/20 12:35:02;;;;;;;27.47;20.10;;;11.30;99.90;;;;;;5058154;28;20178;-76
2022/03/20 12:37:28;;;;;;;24.93;19.50;;;11.20;99.90;;;;;;5058090;28;20567;-75
2022/03/20 12:40:07;;;;;;;25.43;18.97;;;11.10;99.90;;;;;;5057981;28;20171;-76
2022/03/20 12:42:35;;;;;;;28.77;19.93;;;11.10;99.90;;;;;;5057940;28;20240;-75
2022/03/20 12:45:03;;;;;;;27.80;20.10;;;11.10;99.90;;;;;;5076079;28;20171;-76
2022/03/20 12:47:29;;;;;;;31.37;20.30;;;11.00;99.90;;;;;;5057942;28;20586;-77
2022/03/20 12:50:10;;;;;;;26.43;20.57;;;11.00;1.00;;;;;;5075676;28;20540;-76
2022/03/20 12:52:38;;;;;;;29.70;20.23;;;10.90;1.00;;;;;;5075703;28;20729;-76
2022/03/20 12:55:08;;;;;;;31.40;21.37;;;10.90;1.00;;;;;;5075822;28;20217;-76
2022/03/20 12:57:44;;;;;;;31.77;21.73;;;10.80;1.00;;;;;;5075650;28;20190;-75
2022/03/20 13:00:12;;;;;;;30.17;21.67;;;10.80;99.90;;;;;;5075781;28;20624;-75
2022/03/20 13:03:07;;;;;;;29.07;21.73;;;10.70;1.00;;;;;;5074136;28;20197;-73
2022/03/20 13:05:40;;;;;;;27.07;21.40;;;10.60;99.90;;;;;;5075139;28;20185;-75
2022/03/20 13:08:08;;;;;;;32.33;21.73;;;10.40;99.90;;;;;;5075386;28;20158;-75
2022/03/20 13:10:39;;;;;;;29.13;22.20;;;10.30;1.00;;;;;;5075408;28;20735;-76
2022/03/20 13:13:06;;;;;;;33.23;22.83;;;10.10;99.90;;;;;;5075255;28;20327;-77
2022/03/20 13:15:37;;;;;;;31.73;22.33;;;10.10;99.90;;;;;;5075586;28;20173;-76
2022/03/20 13:18:05;;;;;;;32.70;22.73;;;10.00;1.00;;;;;;5075255;28;20193;-75
2022/03/20 13:20:33;;;;;;;34.60;24.37;;;9.90;1.00;;;;;;5057502;28;20175;-75